Bourbeuse River (Missouri), Union (07016500)

StateMissouriLatestHigh (2640 cfs)
RiverBourbeuse RiverRatingObservedEstimated
Updated2020-02-25 15:00 (38 minutes ago)Flood - The river is flooding. Obstacles can be treacherous or deadly. The river should be avoided at this stage for casual trips and definitely for the inexperienced. Trips should be attempted only with protective gear and equipment.Flood(none)3331
Discharge2640 cfs (median: 380 cfs)High - The river is high and potentially dangerous, especially for the young and / or inexperienced. Normal stream obstacles are sometimes difficult to navigate. Extended distances can be attempted, but canoe travel may not be advisable.High(none)924
Height6.28 feetGood - Conditions are ideal for a canoe or kayak. Boats typically will drag on fewer than one-quarter of riffles, if at all, and portages are unnecessary or rare. Normal float lengths can be attempted without a problem.Good(none)346
TrendRising (rising over 24 hours)Low - River is low but can still be floated. Some riffles are okay but most come with significant dragging and might need a portage. Float lengths should be reduced to accommodate low flow, dragging, and portages.Low(none)216
USGSExternal icon USGS Site (External icon Google Maps)Poor - River is too low to float comfortably. Most or all riffles will drag or must be portaged and some obstacles (such as slick shelf rock) cause undue problems. Avoid the river at this stage for casual paddling trips.Poor(none)67

Trending Data

Plot Image

Trips for Bourbeuse River (Missouri), Union (07016500)

DateStartEndDistanceConditionDischargeHeightFishingDetails

A total of 0 rows are displayed.

Condition Descriptions

Fishing Conditions

Fish Species

Notes

Classic Trip List

The classic River Trips application is still available for use. It is updated with the new system using a data retrofit. It is no longer maintained. The original River Trips application is no longer updated (as of 1 Dec 2016) but can be checked for errors or for the condition of the data before it was converted to the new system.

Gauge Data Table

ObservationHeightDischargeMaximum
Discharge
Minimum
Discharge
Mean
Discharge
P05P10P20P25P50
(Median)
P75P80P90P95
2020-02-25 15:00 6.28 2640 23200 (1985) 37 (1963) 1230 79 98 154 171 380 840 1050 2150 6660
2020-02-25 14:30 6.22 2590 23200 (1985) 37 (1963) 1230 79 98 154 171 380 840 1050 2150 6660
2020-02-25 14:00 6.16 2550 23200 (1985) 37 (1963) 1230 79 98 154 171 380 840 1050 2150 6660
2020-02-25 13:30 6.09 2500 23200 (1985) 37 (1963) 1230 79 98 154 171 380 840 1050 2150 6660
2020-02-25 13:00 5.98 2420 23200 (1985) 37 (1963) 1230 79 98 154 171 380 840 1050 2150 6660
2020-02-25 12:30 5.88 2350 23200 (1985) 37 (1963) 1230 79 98 154 171 380 840 1050 2150 6660
2020-02-25 12:00 5.76 2270 23200 (1985) 37 (1963) 1230 79 98 154 171 380 840 1050 2150 6660
2020-02-25 11:30 5.64 2190 23200 (1985) 37 (1963) 1230 79 98 154 171 380 840 1050 2150 6660
2020-02-25 11:00 5.50 2100 23200 (1985) 37 (1963) 1230 79 98 154 171 380 840 1050 2150 6660
2020-02-25 10:30 5.36 2010 23200 (1985) 37 (1963) 1230 79 98 154 171 380 840 1050 2150 6660
2020-02-25 10:00 5.21 1910 23200 (1985) 37 (1963) 1230 79 98 154 171 380 840 1050 2150 6660
2020-02-25 09:30 5.06 1810 23200 (1985) 37 (1963) 1230 79 98 154 171 380 840 1050 2150 6660
2020-02-25 09:00 4.93 1730 23200 (1985) 37 (1963) 1230 79 98 154 171 380 840 1050 2150 6660
2020-02-25 08:30 4.81 1660 23200 (1985) 37 (1963) 1230 79 98 154 171 380 840 1050 2150 6660
2020-02-25 08:00 4.69 1590 23200 (1985) 37 (1963) 1230 79 98 154 171 380 840 1050 2150 6660
2020-02-25 07:30 4.60 1530 23200 (1985) 37 (1963) 1230 79 98 154 171 380 840 1050 2150 6660
2020-02-25 07:00 4.53 1490 23200 (1985) 37 (1963) 1230 79 98 154 171 380 840 1050 2150 6660
2020-02-25 06:30 4.46 1450 23200 (1985) 37 (1963) 1230 79 98 154 171 380 840 1050 2150 6660
2020-02-25 06:00 4.40 1420 23200 (1985) 37 (1963) 1230 79 98 154 171 380 840 1050 2150 6660
2020-02-25 05:30 4.35 1390 23200 (1985) 37 (1963) 1230 79 98 154 171 380 840 1050 2150 6660
2020-02-25 05:00 4.29 1350 23200 (1985) 37 (1963) 1230 79 98 154 171 380 840 1050 2150 6660
2020-02-25 04:30 4.23 1320 23200 (1985) 37 (1963) 1230 79 98 154 171 380 840 1050 2150 6660
2020-02-25 04:00 4.15 1260 23200 (1985) 37 (1963) 1230 79 98 154 171 380 840 1050 2150 6660
2020-02-25 03:30 4.07 1210 23200 (1985) 37 (1963) 1230 79 98 154 171 380 840 1050 2150 6660
2020-02-25 03:00 3.99 1160 23200 (1985) 37 (1963) 1230 79 98 154 171 380 840 1050 2150 6660
2020-02-25 02:30 3.91 1110 23200 (1985) 37 (1963) 1230 79 98 154 171 380 840 1050 2150 6660
2020-02-25 02:00 3.81 1060 23200 (1985) 37 (1963) 1230 79 98 154 171 380 840 1050 2150 6660
2020-02-25 01:30 3.72 1000 23200 (1985) 37 (1963) 1230 79 98 154 171 380 840 1050 2150 6660
2020-02-25 01:00 3.64 948 23200 (1985) 37 (1963) 1230 79 98 154 171 380 840 1050 2150 6660
2020-02-25 00:30 3.58 911 23200 (1985) 37 (1963) 1230 79 98 154 171 380 840 1050 2150 6660
2020-02-25 00:00 3.53 880 23200 (1985) 37 (1963) 1230 79 98 154 171 380 840 1050 2150 6660
2020-02-24 23:30 3.49 855 17900 (1985) 37 (1963) 1120 81 97 151 169 333 845 1100 2820 4030
2020-02-24 23:00 3.46 837 17900 (1985) 37 (1963) 1120 81 97 151 169 333 845 1100 2820 4030
2020-02-24 22:30 3.43 819 17900 (1985) 37 (1963) 1120 81 97 151 169 333 845 1100 2820 4030
2020-02-24 22:00 3.42 813 17900 (1985) 37 (1963) 1120 81 97 151 169 333 845 1100 2820 4030
2020-02-24 21:30 3.42 813 17900 (1985) 37 (1963) 1120 81 97 151 169 333 845 1100 2820 4030
2020-02-24 21:00 3.41 807 17900 (1985) 37 (1963) 1120 81 97 151 169 333 845 1100 2820 4030
2020-02-24 20:30 3.41 807 17900 (1985) 37 (1963) 1120 81 97 151 169 333 845 1100 2820 4030
2020-02-24 20:00 3.42 813 17900 (1985) 37 (1963) 1120 81 97 151 169 333 845 1100 2820 4030
2020-02-24 19:30 3.42 813 17900 (1985) 37 (1963) 1120 81 97 151 169 333 845 1100 2820 4030
2020-02-24 19:00 3.43 819 17900 (1985) 37 (1963) 1120 81 97 151 169 333 845 1100 2820 4030
2020-02-24 18:30 3.43 819 17900 (1985) 37 (1963) 1120 81 97 151 169 333 845 1100 2820 4030
2020-02-24 18:00 3.44 825 17900 (1985) 37 (1963) 1120 81 97 151 169 333 845 1100 2820 4030
2020-02-24 17:30 3.45 831 17900 (1985) 37 (1963) 1120 81 97 151 169 333 845 1100 2820 4030
2020-02-24 17:00 3.47 843 17900 (1985) 37 (1963) 1120 81 97 151 169 333 845 1100 2820 4030
2020-02-24 16:30 3.48 849 17900 (1985) 37 (1963) 1120 81 97 151 169 333 845 1100 2820 4030
2020-02-24 16:00 3.50 861 17900 (1985) 37 (1963) 1120 81 97 151 169 333 845 1100 2820 4030
2020-02-24 15:30 3.51 867 17900 (1985) 37 (1963) 1120 81 97 151 169 333 845 1100 2820 4030
2020-02-24 15:00 3.52 873 17900 (1985) 37 (1963) 1120 81 97 151 169 333 845 1100 2820 4030
2020-02-24 14:30 3.52 873 17900 (1985) 37 (1963) 1120 81 97 151 169 333 845 1100 2820 4030
2020-02-24 14:00 3.52 873 17900 (1985) 37 (1963) 1120 81 97 151 169 333 845 1100 2820 4030
2020-02-24 13:30 3.51 867 17900 (1985) 37 (1963) 1120 81 97 151 169 333 845 1100 2820 4030
2020-02-24 13:00 3.48 849 17900 (1985) 37 (1963) 1120 81 97 151 169 333 845 1100 2820 4030
2020-02-24 12:30 3.46 837 17900 (1985) 37 (1963) 1120 81 97 151 169 333 845 1100 2820 4030
2020-02-24 12:00 3.45 831 17900 (1985) 37 (1963) 1120 81 97 151 169 333 845 1100 2820 4030
2020-02-24 11:30 3.44 825 17900 (1985) 37 (1963) 1120 81 97 151 169 333 845 1100 2820 4030
2020-02-24 11:00 3.45 831 17900 (1985) 37 (1963) 1120 81 97 151 169 333 845 1100 2820 4030
2020-02-24 10:30 3.44 825 17900 (1985) 37 (1963) 1120 81 97 151 169 333 845 1100 2820 4030
2020-02-24 10:00 3.37 784 17900 (1985) 37 (1963) 1120 81 97 151 169 333 845 1100 2820 4030
2020-02-24 09:30 3.26 719 17900 (1985) 37 (1963) 1120 81 97 151 169 333 845 1100 2820 4030
2020-02-24 09:00 3.20 682 17900 (1985) 37 (1963) 1120 81 97 151 169 333 845 1100 2820 4030
2020-02-24 08:30 3.09 616 17900 (1985) 37 (1963) 1120 81 97 151 169 333 845 1100 2820 4030
2020-02-24 08:00 3.04 588 17900 (1985) 37 (1963) 1120 81 97 151 169 333 845 1100 2820 4030
2020-02-24 07:30 3.03 582 17900 (1985) 37 (1963) 1120 81 97 151 169 333 845 1100 2820 4030
2020-02-24 07:00 3.03 582 17900 (1985) 37 (1963) 1120 81 97 151 169 333 845 1100 2820 4030
2020-02-24 06:30 3.04 588 17900 (1985) 37 (1963) 1120 81 97 151 169 333 845 1100 2820 4030
2020-02-24 06:00 3.04 588 17900 (1985) 37 (1963) 1120 81 97 151 169 333 845 1100 2820 4030
2020-02-24 05:30 3.03 582 17900 (1985) 37 (1963) 1120 81 97 151 169 333 845 1100 2820 4030
2020-02-24 05:00 2.99 560 17900 (1985) 37 (1963) 1120 81 97 151 169 333 845 1100 2820 4030
2020-02-24 04:30 2.95 538 17900 (1985) 37 (1963) 1120 81 97 151 169 333 845 1100 2820 4030
2020-02-24 04:00 2.93 526 17900 (1985) 37 (1963) 1120 81 97 151 169 333 845 1100 2820 4030
2020-02-24 03:30 2.92 520 17900 (1985) 37 (1963) 1120 81 97 151 169 333 845 1100 2820 4030
2020-02-24 03:00 2.92 520 17900 (1985) 37 (1963) 1120 81 97 151 169 333 845 1100 2820 4030
2020-02-24 02:30 2.91 514 17900 (1985) 37 (1963) 1120 81 97 151 169 333 845 1100 2820 4030
2020-02-24 02:00 2.92 520 17900 (1985) 37 (1963) 1120 81 97 151 169 333 845 1100 2820 4030
2020-02-24 01:30 2.91 514 17900 (1985) 37 (1963) 1120 81 97 151 169 333 845 1100 2820 4030
2020-02-24 01:00 2.91 514 17900 (1985) 37 (1963) 1120 81 97 151 169 333 845 1100 2820 4030
2020-02-24 00:30 2.91 514 17900 (1985) 37 (1963) 1120 81 97 151 169 333 845 1100 2820 4030
2020-02-24 00:00 2.91 514 17900 (1985) 37 (1963) 1120 81 97 151 169 333 845 1100 2820 4030
2020-02-23 23:30 2.91 514 12100 (1985) 37 (1963) 1070 85 101 147 174 356 936 1200 2990 5520
2020-02-23 23:00 2.91 514 12100 (1985) 37 (1963) 1070 85 101 147 174 356 936 1200 2990 5520
2020-02-23 22:30 2.92 520 12100 (1985) 37 (1963) 1070 85 101 147 174 356 936 1200 2990 5520
2020-02-23 22:00 2.92 520 12100 (1985) 37 (1963) 1070 85 101 147 174 356 936 1200 2990 5520
2020-02-23 21:30 2.92 520 12100 (1985) 37 (1963) 1070 85 101 147 174 356 936 1200 2990 5520
2020-02-23 21:00 2.92 520 12100 (1985) 37 (1963) 1070 85 101 147 174 356 936 1200 2990 5520
2020-02-23 20:30 2.93 526 12100 (1985) 37 (1963) 1070 85 101 147 174 356 936 1200 2990 5520
2020-02-23 20:00 2.93 526 12100 (1985) 37 (1963) 1070 85 101 147 174 356 936 1200 2990 5520
2020-02-23 19:30 2.93 526 12100 (1985) 37 (1963) 1070 85 101 147 174 356 936 1200 2990 5520
2020-02-23 19:00 2.93 526 12100 (1985) 37 (1963) 1070 85 101 147 174 356 936 1200 2990 5520
2020-02-23 18:30 2.93 526 12100 (1985) 37 (1963) 1070 85 101 147 174 356 936 1200 2990 5520
2020-02-23 18:00 2.93 526 12100 (1985) 37 (1963) 1070 85 101 147 174 356 936 1200 2990 5520
2020-02-23 17:30 2.93 526 12100 (1985) 37 (1963) 1070 85 101 147 174 356 936 1200 2990 5520
2020-02-23 17:00 2.94 532 12100 (1985) 37 (1963) 1070 85 101 147 174 356 936 1200 2990 5520
2020-02-23 16:30 2.93 526 12100 (1985) 37 (1963) 1070 85 101 147 174 356 936 1200 2990 5520
2020-02-23 16:00 2.94 532 12100 (1985) 37 (1963) 1070 85 101 147 174 356 936 1200 2990 5520
2020-02-23 15:30 2.94 532 12100 (1985) 37 (1963) 1070 85 101 147 174 356 936 1200 2990 5520
2020-02-23 15:00 2.94 532 12100 (1985) 37 (1963) 1070 85 101 147 174 356 936 1200 2990 5520
2020-02-23 14:30 2.95 538 12100 (1985) 37 (1963) 1070 85 101 147 174 356 936 1200 2990 5520
2020-02-23 14:00 2.95 538 12100 (1985) 37 (1963) 1070 85 101 147 174 356 936 1200 2990 5520
2020-02-23 13:30 2.95 538 12100 (1985) 37 (1963) 1070 85 101 147 174 356 936 1200 2990 5520
2020-02-23 13:00 2.95 538 12100 (1985) 37 (1963) 1070 85 101 147 174 356 936 1200 2990 5520
2020-02-23 12:30 2.96 544 12100 (1985) 37 (1963) 1070 85 101 147 174 356 936 1200 2990 5520
2020-02-23 12:00 2.96 544 12100 (1985) 37 (1963) 1070 85 101 147 174 356 936 1200 2990 5520
2020-02-23 11:30 2.96 544 12100 (1985) 37 (1963) 1070 85 101 147 174 356 936 1200 2990 5520
2020-02-23 11:00 2.96 544 12100 (1985) 37 (1963) 1070 85 101 147 174 356 936 1200 2990 5520
2020-02-23 10:30 2.96 544 12100 (1985) 37 (1963) 1070 85 101 147 174 356 936 1200 2990 5520
2020-02-23 10:00 2.96 544 12100 (1985) 37 (1963) 1070 85 101 147 174 356 936 1200 2990 5520
2020-02-23 09:30 2.97 549 12100 (1985) 37 (1963) 1070 85 101 147 174 356 936 1200 2990 5520
2020-02-23 09:00 2.96 544 12100 (1985) 37 (1963) 1070 85 101 147 174 356 936 1200 2990 5520
2020-02-23 08:30 2.96 544 12100 (1985) 37 (1963) 1070 85 101 147 174 356 936 1200 2990 5520
2020-02-23 08:00 2.96 544 12100 (1985) 37 (1963) 1070 85 101 147 174 356 936 1200 2990 5520
2020-02-23 07:30 2.97 549 12100 (1985) 37 (1963) 1070 85 101 147 174 356 936 1200 2990 5520
2020-02-23 07:00 2.97 549 12100 (1985) 37 (1963) 1070 85 101 147 174 356 936 1200 2990 5520
2020-02-23 06:30 2.98 555 12100 (1985) 37 (1963) 1070 85 101 147 174 356 936 1200 2990 5520
2020-02-23 06:00 2.97 549 12100 (1985) 37 (1963) 1070 85 101 147 174 356 936 1200 2990 5520
2020-02-23 05:30 2.98 555 12100 (1985) 37 (1963) 1070 85 101 147 174 356 936 1200 2990 5520
2020-02-23 05:00 2.98 555 12100 (1985) 37 (1963) 1070 85 101 147 174 356 936 1200 2990 5520
2020-02-23 04:30 2.98 555 12100 (1985) 37 (1963) 1070 85 101 147 174 356 936 1200 2990 5520
2020-02-23 04:00 2.98 555 12100 (1985) 37 (1963) 1070 85 101 147 174 356 936 1200 2990 5520
2020-02-23 03:30 2.99 560 12100 (1985) 37 (1963) 1070 85 101 147 174 356 936 1200 2990 5520
2020-02-23 03:00 2.99 560 12100 (1985) 37 (1963) 1070 85 101 147 174 356 936 1200 2990 5520
2020-02-23 02:30 2.99 560 12100 (1985) 37 (1963) 1070 85 101 147 174 356 936 1200 2990 5520
2020-02-23 02:00 2.99 560 12100 (1985) 37 (1963) 1070 85 101 147 174 356 936 1200 2990 5520
2020-02-23 01:30 2.99 560 12100 (1985) 37 (1963) 1070 85 101 147 174 356 936 1200 2990 5520
2020-02-23 01:00 3.00 566 12100 (1985) 37 (1963) 1070 85 101 147 174 356 936 1200 2990 5520
2020-02-23 00:30 3.00 566 12100 (1985) 37 (1963) 1070 85 101 147 174 356 936 1200 2990 5520
2020-02-23 00:00 3.00 566 12100 (1985) 37 (1963) 1070 85 101 147 174 356 936 1200 2990 5520
2020-02-22 23:30 3.00 566 7660 (1951) 35 (1963) 851 85 101 145 171 401 750 1030 2100 4030
2020-02-22 23:00 3.01 571 7660 (1951) 35 (1963) 851 85 101 145 171 401 750 1030 2100 4030
2020-02-22 22:30 3.02 577 7660 (1951) 35 (1963) 851 85 101 145 171 401 750 1030 2100 4030
2020-02-22 22:00 3.01 571 7660 (1951) 35 (1963) 851 85 101 145 171 401 750 1030 2100 4030
2020-02-22 21:30 3.02 577 7660 (1951) 35 (1963) 851 85 101 145 171 401 750 1030 2100 4030
2020-02-22 21:00 3.02 577 7660 (1951) 35 (1963) 851 85 101 145 171 401 750 1030 2100 4030
2020-02-22 20:30 3.02 577 7660 (1951) 35 (1963) 851 85 101 145 171 401 750 1030 2100 4030
2020-02-22 20:00 3.03 582 7660 (1951) 35 (1963) 851 85 101 145 171 401 750 1030 2100 4030
2020-02-22 19:30 3.03 582 7660 (1951) 35 (1963) 851 85 101 145 171 401 750 1030 2100 4030
2020-02-22 19:00 3.03 582 7660 (1951) 35 (1963) 851 85 101 145 171 401 750 1030 2100 4030
2020-02-22 18:30 3.03 582 7660 (1951) 35 (1963) 851 85 101 145 171 401 750 1030 2100 4030
2020-02-22 18:00 3.03 582 7660 (1951) 35 (1963) 851 85 101 145 171 401 750 1030 2100 4030
2020-02-22 17:30 3.04 588 7660 (1951) 35 (1963) 851 85 101 145 171 401 750 1030 2100 4030
2020-02-22 17:00 3.04 588 7660 (1951) 35 (1963) 851 85 101 145 171 401 750 1030 2100 4030
2020-02-22 16:30 3.04 588 7660 (1951) 35 (1963) 851 85 101 145 171 401 750 1030 2100 4030
2020-02-22 16:00 3.04 588 7660 (1951) 35 (1963) 851 85 101 145 171 401 750 1030 2100 4030
2020-02-22 15:30 3.05 593 7660 (1951) 35 (1963) 851 85 101 145 171 401 750 1030 2100 4030
2020-02-22 15:00 3.05 593 7660 (1951) 35 (1963) 851 85 101 145 171 401 750 1030 2100 4030
2020-02-22 14:30 3.06 599 7660 (1951) 35 (1963) 851 85 101 145 171 401 750 1030 2100 4030
2020-02-22 14:00 3.06 599 7660 (1951) 35 (1963) 851 85 101 145 171 401 750 1030 2100 4030
2020-02-22 13:30 3.06 599 7660 (1951) 35 (1963) 851 85 101 145 171 401 750 1030 2100 4030
2020-02-22 13:00 3.06 599 7660 (1951) 35 (1963) 851 85 101 145 171 401 750 1030 2100 4030
2020-02-22 12:30 3.06 599 7660 (1951) 35 (1963) 851 85 101 145 171 401 750 1030 2100 4030
2020-02-22 12:00 3.07 605 7660 (1951) 35 (1963) 851 85 101 145 171 401 750 1030 2100 4030
2020-02-22 11:30 3.07 605 7660 (1951) 35 (1963) 851 85 101 145 171 401 750 1030 2100 4030
2020-02-22 11:00 3.07 605 7660 (1951) 35 (1963) 851 85 101 145 171 401 750 1030 2100 4030
2020-02-22 10:30 3.07 605 7660 (1951) 35 (1963) 851 85 101 145 171 401 750 1030 2100 4030
2020-02-22 10:00 3.08 611 7660 (1951) 35 (1963) 851 85 101 145 171 401 750 1030 2100 4030
2020-02-22 09:30 3.08 611 7660 (1951) 35 (1963) 851 85 101 145 171 401 750 1030 2100 4030
2020-02-22 09:00 3.08 611 7660 (1951) 35 (1963) 851 85 101 145 171 401 750 1030 2100 4030
2020-02-22 08:30 3.08 611 7660 (1951) 35 (1963) 851 85 101 145 171 401 750 1030 2100 4030
2020-02-22 08:00 3.09 616 7660 (1951) 35 (1963) 851 85 101 145 171 401 750 1030 2100 4030
2020-02-22 07:30 3.09 616 7660 (1951) 35 (1963) 851 85 101 145 171 401 750 1030 2100 4030
2020-02-22 07:00 3.09 616 7660 (1951) 35 (1963) 851 85 101 145 171 401 750 1030 2100 4030
2020-02-22 06:30 3.10 622 7660 (1951) 35 (1963) 851 85 101 145 171 401 750 1030 2100 4030
2020-02-22 06:00 3.10 622 7660 (1951) 35 (1963) 851 85 101 145 171 401 750 1030 2100 4030
2020-02-22 05:30 3.10 622 7660 (1951) 35 (1963) 851 85 101 145 171 401 750 1030 2100 4030
2020-02-22 05:00 3.10 622 7660 (1951) 35 (1963) 851 85 101 145 171 401 750 1030 2100 4030
2020-02-22 04:30 3.11 628 7660 (1951) 35 (1963) 851 85 101 145 171 401 750 1030 2100 4030
2020-02-22 04:00 3.11 628 7660 (1951) 35 (1963) 851 85 101 145 171 401 750 1030 2100 4030
2020-02-22 03:30 3.11 628 7660 (1951) 35 (1963) 851 85 101 145 171 401 750 1030 2100 4030
2020-02-22 03:00 3.11 628 7660 (1951) 35 (1963) 851 85 101 145 171 401 750 1030 2100 4030
2020-02-22 02:30 3.12 634 7660 (1951) 35 (1963) 851 85 101 145 171 401 750 1030 2100 4030
2020-02-22 02:00 3.12 634 7660 (1951) 35 (1963) 851 85 101 145 171 401 750 1030 2100 4030
2020-02-22 01:30 3.13 640 7660 (1951) 35 (1963) 851 85 101 145 171 401 750 1030 2100 4030
2020-02-22 01:00 3.13 640 7660 (1951) 35 (1963) 851 85 101 145 171 401 750 1030 2100 4030
2020-02-22 00:30 3.13 640 7660 (1951) 35 (1963) 851 85 101 145 171 401 750 1030 2100 4030
2020-02-22 00:00 3.13 640 7660 (1951) 35 (1963) 851 85 101 145 171 401 750 1030 2100 4030
2020-02-21 23:30 3.14 646 7170 (1938) 35 (1963) 820 85 100 150 172 372 702 856 1690 5360
2020-02-21 23:00 3.15 652 7170 (1938) 35 (1963) 820 85 100 150 172 372 702 856 1690 5360
2020-02-21 22:30 3.15 652 7170 (1938) 35 (1963) 820 85 100 150 172 372 702 856 1690 5360
2020-02-21 22:00 3.15 652 7170 (1938) 35 (1963) 820 85 100 150 172 372 702 856 1690 5360
2020-02-21 21:30 3.15 652 7170 (1938) 35 (1963) 820 85 100 150 172 372 702 856 1690 5360
2020-02-21 21:00 3.15 652 7170 (1938) 35 (1963) 820 85 100 150 172 372 702 856 1690 5360
2020-02-21 20:30 3.16 657 7170 (1938) 35 (1963) 820 85 100 150 172 372 702 856 1690 5360
2020-02-21 20:00 3.17 664 7170 (1938) 35 (1963) 820 85 100 150 172 372 702 856 1690 5360
2020-02-21 19:30 3.17 664 7170 (1938) 35 (1963) 820 85 100 150 172 372 702 856 1690 5360
2020-02-21 19:00 3.17 664 7170 (1938) 35 (1963) 820 85 100 150 172 372 702 856 1690 5360
2020-02-21 18:30 3.17 664 7170 (1938) 35 (1963) 820 85 100 150 172 372 702 856 1690 5360
2020-02-21 18:00 3.18 670 7170 (1938) 35 (1963) 820 85 100 150 172 372 702 856 1690 5360
2020-02-21 17:30 3.18 670 7170 (1938) 35 (1963) 820 85 100 150 172 372 702 856 1690 5360
2020-02-21 17:00 3.18 670 7170 (1938) 35 (1963) 820 85 100 150 172 372 702 856 1690 5360
2020-02-21 16:30 3.18 670 7170 (1938) 35 (1963) 820 85 100 150 172 372 702 856 1690 5360
2020-02-21 16:00 3.19 676 7170 (1938) 35 (1963) 820 85 100 150 172 372 702 856 1690 5360
2020-02-21 15:30 3.20 682 7170 (1938) 35 (1963) 820 85 100 150 172 372 702 856 1690 5360
2020-02-21 15:00 3.20 682 7170 (1938) 35 (1963) 820 85 100 150 172 372 702 856 1690 5360
2020-02-21 14:30 3.20 682 7170 (1938) 35 (1963) 820 85 100 150 172 372 702 856 1690 5360
2020-02-21 14:00 3.21 688 7170 (1938) 35 (1963) 820 85 100 150 172 372 702 856 1690 5360
2020-02-21 13:30 3.21 688 7170 (1938) 35 (1963) 820 85 100 150 172 372 702 856 1690 5360
2020-02-21 13:00 3.21 688 7170 (1938) 35 (1963) 820 85 100 150 172 372 702 856 1690 5360
2020-02-21 12:30 3.22 694 7170 (1938) 35 (1963) 820 85 100 150 172 372 702 856 1690 5360
2020-02-21 12:00 3.22 694 7170 (1938) 35 (1963) 820 85 100 150 172 372 702 856 1690 5360
2020-02-21 11:30 3.22 694 7170 (1938) 35 (1963) 820 85 100 150 172 372 702 856 1690 5360
2020-02-21 11:00 3.23 700 7170 (1938) 35 (1963) 820 85 100 150 172 372 702 856 1690 5360
2020-02-21 10:30 3.23 700 7170 (1938) 35 (1963) 820 85 100 150 172 372 702 856 1690 5360
2020-02-21 10:00 3.23 700 7170 (1938) 35 (1963) 820 85 100 150 172 372 702 856 1690 5360
2020-02-21 09:30 3.24 706 7170 (1938) 35 (1963) 820 85 100 150 172 372 702 856 1690 5360
2020-02-21 09:00 3.24 706 7170 (1938) 35 (1963) 820 85 100 150 172 372 702 856 1690 5360
2020-02-21 08:30 3.25 713 7170 (1938) 35 (1963) 820 85 100 150 172 372 702 856 1690 5360
2020-02-21 08:00 3.26 719 7170 (1938) 35 (1963) 820 85 100 150 172 372 702 856 1690 5360
2020-02-21 07:30 3.27 725 7170 (1938) 35 (1963) 820 85 100 150 172 372 702 856 1690 5360
2020-02-21 07:00 3.26 719 7170 (1938) 35 (1963) 820 85 100 150 172 372 702 856 1690 5360
2020-02-21 06:30 3.27 725 7170 (1938) 35 (1963) 820 85 100 150 172 372 702 856 1690 5360
2020-02-21 06:00 3.27 725 7170 (1938) 35 (1963) 820 85 100 150 172 372 702 856 1690 5360
2020-02-21 05:30 3.28 732 7170 (1938) 35 (1963) 820 85 100 150 172 372 702 856 1690 5360
2020-02-21 05:00 3.28 732 7170 (1938) 35 (1963) 820 85 100 150 172 372 702 856 1690 5360
2020-02-21 04:30 3.28 732 7170 (1938) 35 (1963) 820 85 100 150 172 372 702 856 1690 5360
2020-02-21 04:00 3.29 738 7170 (1938) 35 (1963) 820 85 100 150 172 372 702 856 1690 5360
2020-02-21 03:30 3.29 738 7170 (1938) 35 (1963) 820 85 100 150 172 372 702 856 1690 5360
2020-02-21 03:00 3.30 744 7170 (1938) 35 (1963) 820 85 100 150 172 372 702 856 1690 5360
2020-02-21 02:30 3.30 744 7170 (1938) 35 (1963) 820 85 100 150 172 372 702 856 1690 5360
2020-02-21 02:00 3.31 750 7170 (1938) 35 (1963) 820 85 100 150 172 372 702 856 1690 5360
2020-02-21 01:30 3.30 744 7170 (1938) 35 (1963) 820 85 100 150 172 372 702 856 1690 5360
2020-02-21 01:00 3.31 750 7170 (1938) 35 (1963) 820 85 100 150 172 372 702 856 1690 5360
2020-02-21 00:30 3.32 755 7170 (1938) 35 (1963) 820 85 100 150 172 372 702 856 1690 5360
2020-02-21 00:00 3.32 755 7170 (1938) 35 (1963) 820 85 100 150 172 372 702 856 1690 5360
2020-02-20 23:30 3.33 761 12000 (1938) 38 (1963) 802 79 104 148 172 374 673 852 1760 2920
2020-02-20 23:00 3.33 761 12000 (1938) 38 (1963) 802 79 104 148 172 374 673 852 1760 2920
2020-02-20 22:30 3.34 767 12000 (1938) 38 (1963) 802 79 104 148 172 374 673 852 1760 2920
2020-02-20 22:00 3.34 767 12000 (1938) 38 (1963) 802 79 104 148 172 374 673 852 1760 2920
2020-02-20 21:30 3.35 773 12000 (1938) 38 (1963) 802 79 104 148 172 374 673 852 1760 2920
2020-02-20 21:00 3.35 773 12000 (1938) 38 (1963) 802 79 104 148 172 374 673 852 1760 2920
2020-02-20 20:30 3.36 778 12000 (1938) 38 (1963) 802 79 104 148 172 374 673 852 1760 2920
2020-02-20 20:00 3.36 778 12000 (1938) 38 (1963) 802 79 104 148 172 374 673 852 1760 2920
2020-02-20 19:30 3.36 778 12000 (1938) 38 (1963) 802 79 104 148 172 374 673 852 1760 2920
2020-02-20 19:00 3.36 778 12000 (1938) 38 (1963) 802 79 104 148 172 374 673 852 1760 2920
2020-02-20 18:30 3.37 784 12000 (1938) 38 (1963) 802 79 104 148 172 374 673 852 1760 2920
2020-02-20 18:00 3.37 784 12000 (1938) 38 (1963) 802 79 104 148 172 374 673 852 1760 2920
2020-02-20 17:30 3.38 790 12000 (1938) 38 (1963) 802 79 104 148 172 374 673 852 1760 2920
2020-02-20 17:00 3.38 790 12000 (1938) 38 (1963) 802 79 104 148 172 374 673 852 1760 2920
2020-02-20 16:30 3.39 796 12000 (1938) 38 (1963) 802 79 104 148 172 374 673 852 1760 2920
2020-02-20 16:00 3.38 790 12000 (1938) 38 (1963) 802 79 104 148 172 374 673 852 1760 2920
2020-02-20 15:30 3.39 796 12000 (1938) 38 (1963) 802 79 104 148 172 374 673 852 1760 2920
2020-02-20 15:00 3.40 802 12000 (1938) 38 (1963) 802 79 104 148 172 374 673 852 1760 2920
2020-02-20 14:30 3.40 802 12000 (1938) 38 (1963) 802 79 104 148 172 374 673 852 1760 2920
2020-02-20 14:00 3.41 807 12000 (1938) 38 (1963) 802 79 104 148 172 374 673 852 1760 2920
2020-02-20 13:30 3.41 807 12000 (1938) 38 (1963) 802 79 104 148 172 374 673 852 1760 2920
2020-02-20 13:00 3.41 807 12000 (1938) 38 (1963) 802 79 104 148 172 374 673 852 1760 2920
2020-02-20 12:30 3.42 813 12000 (1938) 38 (1963) 802 79 104 148 172 374 673 852 1760 2920
2020-02-20 12:00 3.42 813 12000 (1938) 38 (1963) 802 79 104 148 172 374 673 852 1760 2920
2020-02-20 11:30 3.42 813 12000 (1938) 38 (1963) 802 79 104 148 172 374 673 852 1760 2920
2020-02-20 11:00 3.43 819 12000 (1938) 38 (1963) 802 79 104 148 172 374 673 852 1760 2920
2020-02-20 10:30 3.42 813 12000 (1938) 38 (1963) 802 79 104 148 172 374 673 852 1760 2920
2020-02-20 10:00 3.43 819 12000 (1938) 38 (1963) 802 79 104 148 172 374 673 852 1760 2920
2020-02-20 09:30 3.43 819 12000 (1938) 38 (1963) 802 79 104 148 172 374 673 852 1760 2920
2020-02-20 09:00 3.43 819 12000 (1938) 38 (1963) 802 79 104 148 172 374 673 852 1760 2920
2020-02-20 08:30 3.44 825 12000 (1938) 38 (1963) 802 79 104 148 172 374 673 852 1760 2920
2020-02-20 08:00 3.44 825 12000 (1938) 38 (1963) 802 79 104 148 172 374 673 852 1760 2920
2020-02-20 07:30 3.45 831 12000 (1938) 38 (1963) 802 79 104 148 172 374 673 852 1760 2920
2020-02-20 07:00 3.44 825 12000 (1938) 38 (1963) 802 79 104 148 172 374 673 852 1760 2920
2020-02-20 06:30 3.45 831 12000 (1938) 38 (1963) 802 79 104 148 172 374 673 852 1760 2920
2020-02-20 06:00 3.45 831 12000 (1938) 38 (1963) 802 79 104 148 172 374 673 852 1760 2920
2020-02-20 05:30 3.46 837 12000 (1938) 38 (1963) 802 79 104 148 172 374 673 852 1760 2920
2020-02-20 05:00 3.46 837 12000 (1938) 38 (1963) 802 79 104 148 172 374 673 852 1760 2920
2020-02-20 04:30 3.46 837 12000 (1938) 38 (1963) 802 79 104 148 172 374 673 852 1760 2920
2020-02-20 04:00 3.46 837 12000 (1938) 38 (1963) 802 79 104 148 172 374 673 852 1760 2920
2020-02-20 03:30 3.46 837 12000 (1938) 38 (1963) 802 79 104 148 172 374 673 852 1760 2920
2020-02-20 03:00 3.47 843 12000 (1938) 38 (1963) 802 79 104 148 172 374 673 852 1760 2920
2020-02-20 02:30 3.47 843 12000 (1938) 38 (1963) 802 79 104 148 172 374 673 852 1760 2920
2020-02-20 02:00 3.48 849 12000 (1938) 38 (1963) 802 79 104 148 172 374 673 852 1760 2920
2020-02-20 01:30 3.48 849 12000 (1938) 38 (1963) 802 79 104 148 172 374 673 852 1760 2920
2020-02-20 01:00 3.48 849 12000 (1938) 38 (1963) 802 79 104 148 172 374 673 852 1760 2920
2020-02-20 00:30 3.49 855 12000 (1938) 38 (1963) 802 79 104 148 172 374 673 852 1760 2920
2020-02-20 00:00 3.49 855 12000 (1938) 38 (1963) 802 79 104 148 172 374 673 852 1760 2920
2020-02-19 23:30 3.49 855 9600 (1938) 38 (1963) 813 78 105 143 172 356 595 729 1650 4590
2020-02-19 23:00 3.50 861 9600 (1938) 38 (1963) 813 78 105 143 172 356 595 729 1650 4590
2020-02-19 22:30 3.50 861 9600 (1938) 38 (1963) 813 78 105 143 172 356 595 729 1650 4590
2020-02-19 22:00 3.50 861 9600 (1938) 38 (1963) 813 78 105 143 172 356 595 729 1650 4590
2020-02-19 21:30 3.51 867 9600 (1938) 38 (1963) 813 78 105 143 172 356 595 729 1650 4590
2020-02-19 21:00 3.51 867 9600 (1938) 38 (1963) 813 78 105 143 172 356 595 729 1650 4590
2020-02-19 20:30 3.51 867 9600 (1938) 38 (1963) 813 78 105 143 172 356 595 729 1650 4590
2020-02-19 20:00 3.51 867 9600 (1938) 38 (1963) 813 78 105 143 172 356 595 729 1650 4590
2020-02-19 19:30 3.51 867 9600 (1938) 38 (1963) 813 78 105 143 172 356 595 729 1650 4590
2020-02-19 19:00 3.52 873 9600 (1938) 38 (1963) 813 78 105 143 172 356 595 729 1650 4590
2020-02-19 18:30 3.52 873 9600 (1938) 38 (1963) 813 78 105 143 172 356 595 729 1650 4590
2020-02-19 18:00 3.52 873 9600 (1938) 38 (1963) 813 78 105 143 172 356 595 729 1650 4590
2020-02-19 17:30 3.52 873 9600 (1938) 38 (1963) 813 78 105 143 172 356 595 729 1650 4590
2020-02-19 17:00 3.52 873 9600 (1938) 38 (1963) 813 78 105 143 172 356 595 729 1650 4590
2020-02-19 16:30 3.53 880 9600 (1938) 38 (1963) 813 78 105 143 172 356 595 729 1650 4590
2020-02-19 16:00 3.53 880 9600 (1938) 38 (1963) 813 78 105 143 172 356 595 729 1650 4590
2020-02-19 15:30 3.53 880 9600 (1938) 38 (1963) 813 78 105 143 172 356 595 729 1650 4590
2020-02-19 15:00 3.54 886 9600 (1938) 38 (1963) 813 78 105 143 172 356 595 729 1650 4590
2020-02-19 14:30 3.54 886 9600 (1938) 38 (1963) 813 78 105 143 172 356 595 729 1650 4590
2020-02-19 14:00 3.55 892 9600 (1938) 38 (1963) 813 78 105 143 172 356 595 729 1650 4590
2020-02-19 13:30 3.54 886 9600 (1938) 38 (1963) 813 78 105 143 172 356 595 729 1650 4590
2020-02-19 13:00 3.55 892 9600 (1938) 38 (1963) 813 78 105 143 172 356 595 729 1650 4590
2020-02-19 12:30 3.55 892 9600 (1938) 38 (1963) 813 78 105 143 172 356 595 729 1650 4590
2020-02-19 12:00 3.56 898 9600 (1938) 38 (1963) 813 78 105 143 172 356 595 729 1650 4590
2020-02-19 11:30 3.56 898 9600 (1938) 38 (1963) 813 78 105 143 172 356 595 729 1650 4590
2020-02-19 11:00 3.56 898 9600 (1938) 38 (1963) 813 78 105 143 172 356 595 729 1650 4590
2020-02-19 10:30 3.56 898 9600 (1938) 38 (1963) 813 78 105 143 172 356 595 729 1650 4590
2020-02-19 10:00 3.56 898 9600 (1938) 38 (1963) 813 78 105 143 172 356 595 729 1650 4590
2020-02-19 09:30 3.56 898 9600 (1938) 38 (1963) 813 78 105 143 172 356 595 729 1650 4590
2020-02-19 09:00 3.57 904 9600 (1938) 38 (1963) 813 78 105 143 172 356 595 729 1650 4590
2020-02-19 08:30 3.57 904 9600 (1938) 38 (1963) 813 78 105 143 172 356 595 729 1650 4590
2020-02-19 08:00 3.57 904 9600 (1938) 38 (1963) 813 78 105 143 172 356 595 729 1650 4590
2020-02-19 07:30 3.58 911 9600 (1938) 38 (1963) 813 78 105 143 172 356 595 729 1650 4590
2020-02-19 07:00 3.58 911 9600 (1938) 38 (1963) 813 78 105 143 172 356 595 729 1650 4590
2020-02-19 06:30 3.58 911 9600 (1938) 38 (1963) 813 78 105 143 172 356 595 729 1650 4590
2020-02-19 06:00 3.58 911 9600 (1938) 38 (1963) 813 78 105 143 172 356 595 729 1650 4590
2020-02-19 05:30 3.59 917 9600 (1938) 38 (1963) 813 78 105 143 172 356 595 729 1650 4590
2020-02-19 05:00 3.59 917 9600 (1938) 38 (1963) 813 78 105 143 172 356 595 729 1650 4590
2020-02-19 04:30 3.60 923 9600 (1938) 38 (1963) 813 78 105 143 172 356 595 729 1650 4590
2020-02-19 04:00 3.60 923 9600 (1938) 38 (1963) 813 78 105 143 172 356 595 729 1650 4590
2020-02-19 03:30 3.60 923 9600 (1938) 38 (1963) 813 78 105 143 172 356 595 729 1650 4590
2020-02-19 03:00 3.60 923 9600 (1938) 38 (1963) 813 78 105 143 172 356 595 729 1650 4590
2020-02-19 02:30 3.61 929 9600 (1938) 38 (1963) 813 78 105 143 172 356 595 729 1650 4590
2020-02-19 02:00 3.62 936 9600 (1938) 38 (1963) 813 78 105 143 172 356 595 729 1650 4590
2020-02-19 01:30 3.61 929 9600 (1938) 38 (1963) 813 78 105 143 172 356 595 729 1650 4590
2020-02-19 01:00 3.62 936 9600 (1938) 38 (1963) 813 78 105 143 172 356 595 729 1650 4590
2020-02-19 00:30 3.62 936 9600 (1938) 38 (1963) 813 78 105 143 172 356 595 729 1650 4590
2020-02-19 00:00 3.62 936 9600 (1938) 38 (1963) 813 78 105 143 172 356 595 729 1650 4590
2020-02-18 23:30 3.63 942 12200 (1982) 38 (1963) 792 54 95 146 172 342 749 848 1920 3540
2020-02-18 23:00 3.62 936 12200 (1982) 38 (1963) 792 54 95 146 172 342 749 848 1920 3540
2020-02-18 22:30 3.64 948 12200 (1982) 38 (1963) 792 54 95 146 172 342 749 848 1920 3540
2020-02-18 22:00 3.63 942 12200 (1982) 38 (1963) 792 54 95 146 172 342 749 848 1920 3540
2020-02-18 21:30 3.64 948 12200 (1982) 38 (1963) 792 54 95 146 172 342 749 848 1920 3540
2020-02-18 21:00 3.65 955 12200 (1982) 38 (1963) 792 54 95 146 172 342 749 848 1920 3540
2020-02-18 20:30 3.65 955 12200 (1982) 38 (1963) 792 54 95 146 172 342 749 848 1920 3540
2020-02-18 20:00 3.65 955 12200 (1982) 38 (1963) 792 54 95 146 172 342 749 848 1920 3540
2020-02-18 19:30 3.65 955 12200 (1982) 38 (1963) 792 54 95 146 172 342 749 848 1920 3540
2020-02-18 19:00 3.65 955 12200 (1982) 38 (1963) 792 54 95 146 172 342 749 848 1920 3540
2020-02-18 18:30 3.66 961 12200 (1982) 38 (1963) 792 54 95 146 172 342 749 848 1920 3540
2020-02-18 18:00 3.66 961 12200 (1982) 38 (1963) 792 54 95 146 172 342 749 848 1920 3540
2020-02-18 17:30 3.66 961 12200 (1982) 38 (1963) 792 54 95 146 172 342 749 848 1920 3540
2020-02-18 17:00 3.66 961 12200 (1982) 38 (1963) 792 54 95 146 172 342 749 848 1920 3540
2020-02-18 16:30 3.67 968 12200 (1982) 38 (1963) 792 54 95 146 172 342 749 848 1920 3540
2020-02-18 16:00 3.67 968 12200 (1982) 38 (1963) 792 54 95 146 172 342 749 848 1920 3540
2020-02-18 15:30 3.68 974 12200 (1982) 38 (1963) 792 54 95 146 172 342 749 848 1920 3540
2020-02-18 15:00 3.68 974 12200 (1982) 38 (1963) 792 54 95 146 172 342 749 848 1920 3540
2020-02-18 14:30 3.68 974 12200 (1982) 38 (1963) 792 54 95 146 172 342 749 848 1920 3540
2020-02-18 14:00 3.70 987 12200 (1982) 38 (1963) 792 54 95 146 172 342 749 848 1920 3540
2020-02-18 13:30 3.69 981 12200 (1982) 38 (1963) 792 54 95 146 172 342 749 848 1920 3540
2020-02-18 13:00 3.70 987 12200 (1982) 38 (1963) 792 54 95 146 172 342 749 848 1920 3540
2020-02-18 12:30 3.70 987 12200 (1982) 38 (1963) 792 54 95 146 172 342 749 848 1920 3540
2020-02-18 12:00 3.71 994 12200 (1982) 38 (1963) 792 54 95 146 172 342 749 848 1920 3540
2020-02-18 11:30 3.71 994 12200 (1982) 38 (1963) 792 54 95 146 172 342 749 848 1920 3540
2020-02-18 11:00 3.71 994 12200 (1982) 38 (1963) 792 54 95 146 172 342 749 848 1920 3540
2020-02-18 10:30 3.71 994 12200 (1982) 38 (1963) 792 54 95 146 172 342 749 848 1920 3540
2020-02-18 10:00 3.72 1000 12200 (1982) 38 (1963) 792 54 95 146 172 342 749 848 1920 3540
2020-02-18 09:30 3.73 1010 12200 (1982) 38 (1963) 792 54 95 146 172 342 749 848 1920 3540
2020-02-18 09:00 3.73 1010 12200 (1982) 38 (1963) 792 54 95 146 172 342 749 848 1920 3540
2020-02-18 08:30 3.73 1010 12200 (1982) 38 (1963) 792 54 95 146 172 342 749 848 1920 3540
2020-02-18 08:00 3.74 1010 12200 (1982) 38 (1963) 792 54 95 146 172 342 749 848 1920 3540
2020-02-18 07:30 3.74 1010 12200 (1982) 38 (1963) 792 54 95 146 172 342 749 848 1920 3540
2020-02-18 07:00 3.74 1010 12200 (1982) 38 (1963) 792 54 95 146 172 342 749 848 1920 3540
2020-02-18 06:30 3.75 1020 12200 (1982) 38 (1963) 792 54 95 146 172 342 749 848 1920 3540
2020-02-18 06:00 3.75 1020 12200 (1982) 38 (1963) 792 54 95 146 172 342 749 848 1920 3540
2020-02-18 05:30 3.75 1020 12200 (1982) 38 (1963) 792 54 95 146 172 342 749 848 1920 3540
2020-02-18 05:00 3.76 1030 12200 (1982) 38 (1963) 792 54 95 146 172 342 749 848 1920 3540
2020-02-18 04:30 3.76 1030 12200 (1982) 38 (1963) 792 54 95 146 172 342 749 848 1920 3540
2020-02-18 04:00 3.76 1030 12200 (1982) 38 (1963) 792 54 95 146 172 342 749 848 1920 3540
2020-02-18 03:30 3.77 1030 12200 (1982) 38 (1963) 792 54 95 146 172 342 749 848 1920 3540
2020-02-18 03:00 3.78 1040 12200 (1982) 38 (1963) 792 54 95 146 172 342 749 848 1920 3540
2020-02-18 02:30 3.78 1040 12200 (1982) 38 (1963) 792 54 95 146 172 342 749 848 1920 3540
2020-02-18 02:00 3.79 1040 12200 (1982) 38 (1963) 792 54 95 146 172 342 749 848 1920 3540
2020-02-18 01:30 3.80 1050 12200 (1982) 38 (1963) 792 54 95 146 172 342 749 848 1920 3540
2020-02-18 01:00 3.80 1050 12200 (1982) 38 (1963) 792 54 95 146 172 342 749 848 1920 3540
2020-02-18 00:30 3.81 1060 12200 (1982) 38 (1963) 792 54 95 146 172 342 749 848 1920 3540
2020-02-18 00:00 3.81 1060 12200 (1982) 38 (1963) 792 54 95 146 172 342 749 848 1920 3540

A total of 367 rows are displayed for years 1922 through 2019.